<?xml version="1.0" encoding="UTF-8" standalone="no" ?>
<gpx xmlns="http://www.topografix.com/GPX/1/1" xmlns:xsi="http://www.w3.org/2001/XMLSchema-instance" xsi:schemaLocation="http://www.topografix.com/GPX/1/1 http://www.topografix.com/GPX/1/1/gpx.xsd" version="1.1" creator="VisuGPX - https://www.visugpx.com">
  <metadata>
    <name>Soupe aux choux 13 km</name>
    <desc><![CDATA[Organisation ACP3C  www.lapierredes3communes.fr]]></desc>
  </metadata>
  <trk>
    <name><![CDATA[Rando soupe au chou 12.7km-20105380]]></name>
    <extensions>
      <line xmlns="http://www.topografix.com/GPX/gpx_style/0/2">
        <color>0000FF</color>
        <width>4</width>
      </line>
    </extensions>
    <trkseg>
      <trkpt lat="45.67705" lon="4.30093">
        <ele>442</ele>
        <time>2024-10-19T21:30:28Z</time>
      </trkpt>
      <trkpt lat="45.67706" lon="4.30215">
        <ele>447</ele>
        <time>2024-10-19T21:31:36Z</time>
      </trkpt>
      <trkpt lat="45.6771" lon="4.30228">
        <ele>447</ele>
        <time>2024-10-19T21:31:44Z</time>
      </trkpt>
      <trkpt lat="45.67718" lon="4.30241">
        <ele>448</ele>
        <time>2024-10-19T21:31:54Z</time>
      </trkpt>
      <trkpt lat="45.67738" lon="4.30261">
        <ele>450</ele>
        <time>2024-10-19T21:32:13Z</time>
      </trkpt>
      <trkpt lat="45.67745" lon="4.3027">
        <ele>451</ele>
        <time>2024-10-19T21:32:21Z</time>
      </trkpt>
      <trkpt lat="45.67753" lon="4.30293">
        <ele>452</ele>
        <time>2024-10-19T21:32:35Z</time>
      </trkpt>
      <trkpt lat="45.67753" lon="4.30305">
        <ele>453</ele>
        <time>2024-10-19T21:32:42Z</time>
      </trkpt>
      <trkpt lat="45.67748" lon="4.30363">
        <ele>454</ele>
        <time>2024-10-19T21:33:15Z</time>
      </trkpt>
      <trkpt lat="45.67748" lon="4.3038">
        <ele>454</ele>
        <time>2024-10-19T21:33:24Z</time>
      </trkpt>
      <trkpt lat="45.6775" lon="4.30397">
        <ele>454</ele>
        <time>2024-10-19T21:33:34Z</time>
      </trkpt>
      <trkpt lat="45.67771" lon="4.30458">
        <ele>452</ele>
        <time>2024-10-19T21:34:12Z</time>
      </trkpt>
      <trkpt lat="45.6778" lon="4.30491">
        <ele>451</ele>
        <time>2024-10-19T21:34:32Z</time>
      </trkpt>
      <trkpt lat="45.67803" lon="4.30557">
        <ele>453</ele>
        <time>2024-10-19T21:35:13Z</time>
      </trkpt>
      <trkpt lat="45.67816" lon="4.30588">
        <ele>454</ele>
        <time>2024-10-19T21:35:33Z</time>
      </trkpt>
      <trkpt lat="45.67889" lon="4.30715">
        <ele>458</ele>
        <time>2024-10-19T21:37:05Z</time>
      </trkpt>
      <trkpt lat="45.67897" lon="4.3073">
        <ele>458</ele>
        <time>2024-10-19T21:37:16Z</time>
      </trkpt>
      <trkpt lat="45.67905" lon="4.3075">
        <ele>459</ele>
        <time>2024-10-19T21:37:29Z</time>
      </trkpt>
      <trkpt lat="45.67917" lon="4.30785">
        <ele>461</ele>
        <time>2024-10-19T21:37:51Z</time>
      </trkpt>
      <trkpt lat="45.67953" lon="4.30908">
        <ele>466</ele>
        <time>2024-10-19T21:39:05Z</time>
      </trkpt>
      <trkpt lat="45.67971" lon="4.30983">
        <ele>467</ele>
        <time>2024-10-19T21:39:49Z</time>
      </trkpt>
      <trkpt lat="45.67982" lon="4.31053">
        <ele>468</ele>
        <time>2024-10-19T21:40:30Z</time>
      </trkpt>
      <trkpt lat="45.67994" lon="4.31092">
        <ele>469</ele>
        <time>2024-10-19T21:40:53Z</time>
      </trkpt>
      <trkpt lat="45.68011" lon="4.31134">
        <ele>467</ele>
        <time>2024-10-19T21:41:21Z</time>
      </trkpt>
      <trkpt lat="45.68015" lon="4.31135">
        <ele>467</ele>
        <time>2024-10-19T21:41:24Z</time>
      </trkpt>
      <trkpt lat="45.68011" lon="4.31134">
        <ele>467</ele>
        <time>2024-10-19T21:41:27Z</time>
      </trkpt>
      <trkpt lat="45.68016" lon="4.31143">
        <ele>467</ele>
        <time>2024-10-19T21:41:34Z</time>
      </trkpt>
      <trkpt lat="45.6806" lon="4.31194">
        <ele>466</ele>
        <time>2024-10-19T21:42:19Z</time>
      </trkpt>
      <trkpt lat="45.68075" lon="4.31215">
        <ele>467</ele>
        <time>2024-10-19T21:42:36Z</time>
      </trkpt>
      <trkpt lat="45.68114" lon="4.3131">
        <ele>469</ele>
        <time>2024-10-19T21:43:37Z</time>
      </trkpt>
      <trkpt lat="45.68127" lon="4.31336">
        <ele>471</ele>
        <time>2024-10-19T21:43:55Z</time>
      </trkpt>
      <trkpt lat="45.68153" lon="4.31381">
        <ele>473</ele>
        <time>2024-10-19T21:44:28Z</time>
      </trkpt>
      <trkpt lat="45.68168" lon="4.31402">
        <ele>474</ele>
        <time>2024-10-19T21:44:45Z</time>
      </trkpt>
      <trkpt lat="45.6817" lon="4.3142">
        <ele>475</ele>
        <time>2024-10-19T21:44:55Z</time>
      </trkpt>
      <trkpt lat="45.68181" lon="4.31481">
        <ele>476</ele>
        <time>2024-10-19T21:45:30Z</time>
      </trkpt>
      <trkpt lat="45.68192" lon="4.3155">
        <ele>479</ele>
        <time>2024-10-19T21:46:10Z</time>
      </trkpt>
      <trkpt lat="45.68199" lon="4.31624">
        <ele>484</ele>
        <time>2024-10-19T21:46:51Z</time>
      </trkpt>
      <trkpt lat="45.68205" lon="4.31651">
        <ele>486</ele>
        <time>2024-10-19T21:47:07Z</time>
      </trkpt>
      <trkpt lat="45.68247" lon="4.31793">
        <ele>501</ele>
        <time>2024-10-19T21:48:34Z</time>
      </trkpt>
      <trkpt lat="45.68248" lon="4.31796">
        <ele>501</ele>
        <time>2024-10-19T21:48:35Z</time>
      </trkpt>
      <trkpt lat="45.68246" lon="4.31808">
        <ele>502</ele>
        <time>2024-10-19T21:48:42Z</time>
      </trkpt>
      <trkpt lat="45.68248" lon="4.31819">
        <ele>503</ele>
        <time>2024-10-19T21:48:49Z</time>
      </trkpt>
      <trkpt lat="45.68256" lon="4.3184">
        <ele>505</ele>
        <time>2024-10-19T21:49:02Z</time>
      </trkpt>
      <trkpt lat="45.68299" lon="4.31883">
        <ele>508</ele>
        <time>2024-10-19T21:49:44Z</time>
      </trkpt>
      <trkpt lat="45.68325" lon="4.31944">
        <ele>508</ele>
        <time>2024-10-19T21:50:24Z</time>
      </trkpt>
      <trkpt lat="45.68332" lon="4.31957">
        <ele>508</ele>
        <time>2024-10-19T21:50:33Z</time>
      </trkpt>
      <trkpt lat="45.68344" lon="4.31969">
        <ele>507</ele>
        <time>2024-10-19T21:50:45Z</time>
      </trkpt>
      <trkpt lat="45.68354" lon="4.31975">
        <ele>507</ele>
        <time>2024-10-19T21:50:54Z</time>
      </trkpt>
      <trkpt lat="45.68431" lon="4.31991">
        <ele>503</ele>
        <time>2024-10-19T21:51:56Z</time>
      </trkpt>
      <trkpt lat="45.68444" lon="4.3199">
        <ele>501</ele>
        <time>2024-10-19T21:52:06Z</time>
      </trkpt>
      <trkpt lat="45.68477" lon="4.31981">
        <ele>499</ele>
        <time>2024-10-19T21:52:33Z</time>
      </trkpt>
      <trkpt lat="45.68482" lon="4.31978">
        <ele>499</ele>
        <time>2024-10-19T21:52:38Z</time>
      </trkpt>
      <trkpt lat="45.68521" lon="4.31957">
        <ele>499</ele>
        <time>2024-10-19T21:53:11Z</time>
      </trkpt>
      <trkpt lat="45.68548" lon="4.31955">
        <ele>498</ele>
        <time>2024-10-19T21:53:33Z</time>
      </trkpt>
      <trkpt lat="45.68554" lon="4.31956">
        <ele>497</ele>
        <time>2024-10-19T21:53:37Z</time>
      </trkpt>
      <trkpt lat="45.6859" lon="4.31975">
        <ele>494</ele>
        <time>2024-10-19T21:54:08Z</time>
      </trkpt>
      <trkpt lat="45.68634" lon="4.31988">
        <ele>498</ele>
        <time>2024-10-19T21:54:44Z</time>
      </trkpt>
      <trkpt lat="45.68634" lon="4.32039">
        <ele>495</ele>
        <time>2024-10-19T21:55:13Z</time>
      </trkpt>
      <trkpt lat="45.68614" lon="4.32064">
        <ele>490</ele>
        <time>2024-10-19T21:55:34Z</time>
      </trkpt>
      <trkpt lat="45.68577" lon="4.3217">
        <ele>477</ele>
        <time>2024-10-19T21:56:40Z</time>
      </trkpt>
      <trkpt lat="45.68547" lon="4.32224">
        <ele>467</ele>
        <time>2024-10-19T21:57:19Z</time>
      </trkpt>
      <trkpt lat="45.68523" lon="4.32286">
        <ele>457</ele>
        <time>2024-10-19T21:57:58Z</time>
      </trkpt>
      <trkpt lat="45.6853" lon="4.32288">
        <ele>457</ele>
        <time>2024-10-19T21:58:04Z</time>
      </trkpt>
      <trkpt lat="45.68598" lon="4.32295">
        <ele>461</ele>
        <time>2024-10-19T21:58:59Z</time>
      </trkpt>
      <trkpt lat="45.68608" lon="4.32302">
        <ele>461</ele>
        <time>2024-10-19T21:59:08Z</time>
      </trkpt>
      <trkpt lat="45.6861" lon="4.32301">
        <ele>461</ele>
        <time>2024-10-19T21:59:09Z</time>
      </trkpt>
      <trkpt lat="45.68608" lon="4.32302">
        <ele>461</ele>
        <time>2024-10-19T21:59:11Z</time>
      </trkpt>
      <trkpt lat="45.68611" lon="4.32322">
        <ele>458</ele>
        <time>2024-10-19T21:59:22Z</time>
      </trkpt>
      <trkpt lat="45.68612" lon="4.32367">
        <ele>456</ele>
        <time>2024-10-19T21:59:48Z</time>
      </trkpt>
      <trkpt lat="45.68614" lon="4.32389">
        <ele>456</ele>
        <time>2024-10-19T22:00:00Z</time>
      </trkpt>
      <trkpt lat="45.68647" lon="4.32509">
        <ele>465</ele>
        <time>2024-10-19T22:01:12Z</time>
      </trkpt>
      <trkpt lat="45.68725" lon="4.32664">
        <ele>470</ele>
        <time>2024-10-19T22:02:59Z</time>
      </trkpt>
      <trkpt lat="45.6878" lon="4.32803">
        <ele>471</ele>
        <time>2024-10-19T22:04:28Z</time>
      </trkpt>
      <trkpt lat="45.68787" lon="4.3283">
        <ele>471</ele>
        <time>2024-10-19T22:04:45Z</time>
      </trkpt>
      <trkpt lat="45.68797" lon="4.32896">
        <ele>468</ele>
        <time>2024-10-19T22:05:22Z</time>
      </trkpt>
      <trkpt lat="45.68823" lon="4.32961">
        <ele>470</ele>
        <time>2024-10-19T22:06:04Z</time>
      </trkpt>
      <trkpt lat="45.68827" lon="4.32984">
        <ele>469</ele>
        <time>2024-10-19T22:06:17Z</time>
      </trkpt>
      <trkpt lat="45.68829" lon="4.33012">
        <ele>469</ele>
        <time>2024-10-19T22:06:33Z</time>
      </trkpt>
      <trkpt lat="45.68823" lon="4.33073">
        <ele>470</ele>
        <time>2024-10-19T22:07:08Z</time>
      </trkpt>
      <trkpt lat="45.68806" lon="4.33145">
        <ele>473</ele>
        <time>2024-10-19T22:07:50Z</time>
      </trkpt>
      <trkpt lat="45.6884" lon="4.33172">
        <ele>481</ele>
        <time>2024-10-19T22:08:21Z</time>
      </trkpt>
      <trkpt lat="45.68879" lon="4.33237">
        <ele>495</ele>
        <time>2024-10-19T22:09:09Z</time>
      </trkpt>
      <trkpt lat="45.68933" lon="4.33293">
        <ele>507</ele>
        <time>2024-10-19T22:10:03Z</time>
      </trkpt>
      <trkpt lat="45.68903" lon="4.33329">
        <ele>506</ele>
        <time>2024-10-19T22:10:34Z</time>
      </trkpt>
      <trkpt lat="45.689" lon="4.3337">
        <ele>507</ele>
        <time>2024-10-19T22:10:57Z</time>
      </trkpt>
      <trkpt lat="45.68948" lon="4.33389">
        <ele>513</ele>
        <time>2024-10-19T22:11:37Z</time>
      </trkpt>
      <trkpt lat="45.68983" lon="4.33453">
        <ele>520</ele>
        <time>2024-10-19T22:12:22Z</time>
      </trkpt>
      <trkpt lat="45.69017" lon="4.33473">
        <ele>525</ele>
        <time>2024-10-19T22:12:52Z</time>
      </trkpt>
      <trkpt lat="45.69043" lon="4.33514">
        <ele>530</ele>
        <time>2024-10-19T22:13:23Z</time>
      </trkpt>
      <trkpt lat="45.69094" lon="4.33574">
        <ele>539</ele>
        <time>2024-10-19T22:14:16Z</time>
      </trkpt>
      <trkpt lat="45.69143" lon="4.33632">
        <ele>545</ele>
        <time>2024-10-19T22:15:06Z</time>
      </trkpt>
      <trkpt lat="45.69179" lon="4.33702">
        <ele>552</ele>
        <time>2024-10-19T22:15:55Z</time>
      </trkpt>
      <trkpt lat="45.69407" lon="4.33836">
        <ele>550</ele>
        <time>2024-10-19T22:19:12Z</time>
      </trkpt>
      <trkpt lat="45.69474" lon="4.3393">
        <ele>545</ele>
        <time>2024-10-19T22:20:28Z</time>
      </trkpt>
      <trkpt lat="45.69554" lon="4.34069">
        <ele>542</ele>
        <time>2024-10-19T22:22:08Z</time>
      </trkpt>
      <trkpt lat="45.6959" lon="4.34093">
        <ele>544</ele>
        <time>2024-10-19T22:22:40Z</time>
      </trkpt>
      <trkpt lat="45.69594" lon="4.34096">
        <ele>543</ele>
        <time>2024-10-19T22:22:44Z</time>
      </trkpt>
      <trkpt lat="45.69598" lon="4.34099">
        <ele>543</ele>
        <time>2024-10-19T22:22:47Z</time>
      </trkpt>
      <trkpt lat="45.69616" lon="4.34104">
        <ele>542</ele>
        <time>2024-10-19T22:23:02Z</time>
      </trkpt>
      <trkpt lat="45.69645" lon="4.3414">
        <ele>542</ele>
        <time>2024-10-19T22:23:33Z</time>
      </trkpt>
      <trkpt lat="45.69641" lon="4.34153">
        <ele>542</ele>
        <time>2024-10-19T22:23:41Z</time>
      </trkpt>
      <trkpt lat="45.69638" lon="4.34176">
        <ele>543</ele>
        <time>2024-10-19T22:23:54Z</time>
      </trkpt>
      <trkpt lat="45.69632" lon="4.34204">
        <ele>543</ele>
        <time>2024-10-19T22:24:10Z</time>
      </trkpt>
      <trkpt lat="45.69622" lon="4.3423">
        <ele>544</ele>
        <time>2024-10-19T22:24:27Z</time>
      </trkpt>
      <trkpt lat="45.69608" lon="4.34253">
        <ele>543</ele>
        <time>2024-10-19T22:24:44Z</time>
      </trkpt>
      <trkpt lat="45.69599" lon="4.34262">
        <ele>543</ele>
        <time>2024-10-19T22:24:53Z</time>
      </trkpt>
      <trkpt lat="45.69576" lon="4.3429">
        <ele>542</ele>
        <time>2024-10-19T22:25:17Z</time>
      </trkpt>
      <trkpt lat="45.69555" lon="4.34305">
        <ele>541</ele>
        <time>2024-10-19T22:25:36Z</time>
      </trkpt>
      <trkpt lat="45.69528" lon="4.34321">
        <ele>541</ele>
        <time>2024-10-19T22:25:59Z</time>
      </trkpt>
      <trkpt lat="45.69484" lon="4.34347">
        <ele>541</ele>
        <time>2024-10-19T22:26:37Z</time>
      </trkpt>
      <trkpt lat="45.69464" lon="4.34363">
        <ele>540</ele>
        <time>2024-10-19T22:26:55Z</time>
      </trkpt>
      <trkpt lat="45.6945" lon="4.34382">
        <ele>539</ele>
        <time>2024-10-19T22:27:11Z</time>
      </trkpt>
      <trkpt lat="45.69429" lon="4.34439">
        <ele>537</ele>
        <time>2024-10-19T22:27:47Z</time>
      </trkpt>
      <trkpt lat="45.69421" lon="4.34454">
        <ele>535</ele>
        <time>2024-10-19T22:27:57Z</time>
      </trkpt>
      <trkpt lat="45.69391" lon="4.3449">
        <ele>527</ele>
        <time>2024-10-19T22:28:29Z</time>
      </trkpt>
      <trkpt lat="45.69385" lon="4.34502">
        <ele>525</ele>
        <time>2024-10-19T22:28:37Z</time>
      </trkpt>
      <trkpt lat="45.69367" lon="4.34528">
        <ele>522</ele>
        <time>2024-10-19T22:28:58Z</time>
      </trkpt>
      <trkpt lat="45.69347" lon="4.34552">
        <ele>518</ele>
        <time>2024-10-19T22:29:18Z</time>
      </trkpt>
      <trkpt lat="45.69334" lon="4.34573">
        <ele>515</ele>
        <time>2024-10-19T22:29:34Z</time>
      </trkpt>
      <trkpt lat="45.69314" lon="4.34613">
        <ele>508</ele>
        <time>2024-10-19T22:30:02Z</time>
      </trkpt>
      <trkpt lat="45.69306" lon="4.34634">
        <ele>505</ele>
        <time>2024-10-19T22:30:15Z</time>
      </trkpt>
      <trkpt lat="45.69286" lon="4.34674">
        <ele>499</ele>
        <time>2024-10-19T22:30:42Z</time>
      </trkpt>
      <trkpt lat="45.69279" lon="4.34681">
        <ele>497</ele>
        <time>2024-10-19T22:30:49Z</time>
      </trkpt>
      <trkpt lat="45.69272" lon="4.34683">
        <ele>496</ele>
        <time>2024-10-19T22:30:55Z</time>
      </trkpt>
      <trkpt lat="45.69258" lon="4.3468">
        <ele>494</ele>
        <time>2024-10-19T22:31:06Z</time>
      </trkpt>
      <trkpt lat="45.69249" lon="4.34681">
        <ele>492</ele>
        <time>2024-10-19T22:31:14Z</time>
      </trkpt>
      <trkpt lat="45.69244" lon="4.34689">
        <ele>491</ele>
        <time>2024-10-19T22:31:20Z</time>
      </trkpt>
      <trkpt lat="45.69243" lon="4.34694">
        <ele>490</ele>
        <time>2024-10-19T22:31:23Z</time>
      </trkpt>
      <trkpt lat="45.69242" lon="4.34699">
        <ele>490</ele>
        <time>2024-10-19T22:31:25Z</time>
      </trkpt>
      <trkpt lat="45.6922" lon="4.34741">
        <ele>484</ele>
        <time>2024-10-19T22:31:55Z</time>
      </trkpt>
      <trkpt lat="45.69187" lon="4.34755">
        <ele>482</ele>
        <time>2024-10-19T22:32:22Z</time>
      </trkpt>
      <trkpt lat="45.69152" lon="4.34808">
        <ele>488</ele>
        <time>2024-10-19T22:33:03Z</time>
      </trkpt>
      <trkpt lat="45.69149" lon="4.34977">
        <ele>505</ele>
        <time>2024-10-19T22:34:38Z</time>
      </trkpt>
      <trkpt lat="45.6914" lon="4.35114">
        <ele>515</ele>
        <time>2024-10-19T22:35:55Z</time>
      </trkpt>
      <trkpt lat="45.69115" lon="4.35164">
        <ele>522</ele>
        <time>2024-10-19T22:36:29Z</time>
      </trkpt>
      <trkpt lat="45.69121" lon="4.35217">
        <ele>516</ele>
        <time>2024-10-19T22:36:59Z</time>
      </trkpt>
      <trkpt lat="45.69065" lon="4.35314">
        <ele>522</ele>
        <time>2024-10-19T22:38:09Z</time>
      </trkpt>
      <trkpt lat="45.69041" lon="4.35391">
        <ele>519</ele>
        <time>2024-10-19T22:38:57Z</time>
      </trkpt>
      <trkpt lat="45.69057" lon="4.35459">
        <ele>512</ele>
        <time>2024-10-19T22:39:37Z</time>
      </trkpt>
      <trkpt lat="45.69048" lon="4.35463">
        <ele>514</ele>
        <time>2024-10-19T22:39:44Z</time>
      </trkpt>
      <trkpt lat="45.69042" lon="4.35473">
        <ele>514</ele>
        <time>2024-10-19T22:39:52Z</time>
      </trkpt>
      <trkpt lat="45.69038" lon="4.35485">
        <ele>515</ele>
        <time>2024-10-19T22:39:59Z</time>
      </trkpt>
      <trkpt lat="45.69027" lon="4.35506">
        <ele>516</ele>
        <time>2024-10-19T22:40:14Z</time>
      </trkpt>
      <trkpt lat="45.69009" lon="4.35523">
        <ele>520</ele>
        <time>2024-10-19T22:40:31Z</time>
      </trkpt>
      <trkpt lat="45.68994" lon="4.35531">
        <ele>522</ele>
        <time>2024-10-19T22:40:44Z</time>
      </trkpt>
      <trkpt lat="45.68906" lon="4.35545">
        <ele>538</ele>
        <time>2024-10-19T22:41:55Z</time>
      </trkpt>
      <trkpt lat="45.68896" lon="4.3554">
        <ele>538</ele>
        <time>2024-10-19T22:42:03Z</time>
      </trkpt>
      <trkpt lat="45.68884" lon="4.3553">
        <ele>539</ele>
        <time>2024-10-19T22:42:14Z</time>
      </trkpt>
      <trkpt lat="45.68878" lon="4.35519">
        <ele>539</ele>
        <time>2024-10-19T22:42:22Z</time>
      </trkpt>
      <trkpt lat="45.68865" lon="4.35508">
        <ele>540</ele>
        <time>2024-10-19T22:42:34Z</time>
      </trkpt>
      <trkpt lat="45.68863" lon="4.35512">
        <ele>540</ele>
        <time>2024-10-19T22:42:37Z</time>
      </trkpt>
      <trkpt lat="45.68857" lon="4.35514">
        <ele>541</ele>
        <time>2024-10-19T22:42:42Z</time>
      </trkpt>
      <trkpt lat="45.68851" lon="4.35507">
        <ele>541</ele>
        <time>2024-10-19T22:42:48Z</time>
      </trkpt>
      <trkpt lat="45.68844" lon="4.35518">
        <ele>542</ele>
        <time>2024-10-19T22:42:56Z</time>
      </trkpt>
      <trkpt lat="45.68836" lon="4.35551">
        <ele>544</ele>
        <time>2024-10-19T22:43:16Z</time>
      </trkpt>
      <trkpt lat="45.68744" lon="4.35486">
        <ele>537</ele>
        <time>2024-10-19T22:44:38Z</time>
      </trkpt>
      <trkpt lat="45.68725" lon="4.35485">
        <ele>536</ele>
        <time>2024-10-19T22:44:53Z</time>
      </trkpt>
      <trkpt lat="45.68675" lon="4.3546">
        <ele>530</ele>
        <time>2024-10-19T22:45:36Z</time>
      </trkpt>
      <trkpt lat="45.68658" lon="4.35454">
        <ele>528</ele>
        <time>2024-10-19T22:45:50Z</time>
      </trkpt>
      <trkpt lat="45.68635" lon="4.35432">
        <ele>523</ele>
        <time>2024-10-19T22:46:12Z</time>
      </trkpt>
      <trkpt lat="45.68598" lon="4.35402">
        <ele>516</ele>
        <time>2024-10-19T22:46:46Z</time>
      </trkpt>
      <trkpt lat="45.68578" lon="4.35391">
        <ele>512</ele>
        <time>2024-10-19T22:47:03Z</time>
      </trkpt>
      <trkpt lat="45.68535" lon="4.3536">
        <ele>501</ele>
        <time>2024-10-19T22:47:42Z</time>
      </trkpt>
      <trkpt lat="45.6851" lon="4.35357">
        <ele>497</ele>
        <time>2024-10-19T22:48:02Z</time>
      </trkpt>
      <trkpt lat="45.685" lon="4.35338">
        <ele>494</ele>
        <time>2024-10-19T22:48:15Z</time>
      </trkpt>
      <trkpt lat="45.68499" lon="4.35341">
        <ele>494</ele>
        <time>2024-10-19T22:48:17Z</time>
      </trkpt>
      <trkpt lat="45.685" lon="4.35338">
        <ele>494</ele>
        <time>2024-10-19T22:48:19Z</time>
      </trkpt>
      <trkpt lat="45.68513" lon="4.35303">
        <ele>494</ele>
        <time>2024-10-19T22:48:41Z</time>
      </trkpt>
      <trkpt lat="45.68516" lon="4.35288">
        <ele>495</ele>
        <time>2024-10-19T22:48:50Z</time>
      </trkpt>
      <trkpt lat="45.68517" lon="4.35273">
        <ele>494</ele>
        <time>2024-10-19T22:48:58Z</time>
      </trkpt>
      <trkpt lat="45.68515" lon="4.35253">
        <ele>494</ele>
        <time>2024-10-19T22:49:09Z</time>
      </trkpt>
      <trkpt lat="45.68515" lon="4.35252">
        <ele>494</ele>
        <time>2024-10-19T22:49:10Z</time>
      </trkpt>
      <trkpt lat="45.68474" lon="4.35226">
        <ele>488</ele>
        <time>2024-10-19T22:49:46Z</time>
      </trkpt>
      <trkpt lat="45.68466" lon="4.35216">
        <ele>487</ele>
        <time>2024-10-19T22:49:54Z</time>
      </trkpt>
      <trkpt lat="45.68431" lon="4.35194">
        <ele>484</ele>
        <time>2024-10-19T22:50:25Z</time>
      </trkpt>
      <trkpt lat="45.6841" lon="4.35183">
        <ele>484</ele>
        <time>2024-10-19T22:50:43Z</time>
      </trkpt>
      <trkpt lat="45.68399" lon="4.35175">
        <ele>485</ele>
        <time>2024-10-19T22:50:53Z</time>
      </trkpt>
      <trkpt lat="45.68383" lon="4.35157">
        <ele>487</ele>
        <time>2024-10-19T22:51:09Z</time>
      </trkpt>
      <trkpt lat="45.68377" lon="4.35146">
        <ele>487</ele>
        <time>2024-10-19T22:51:17Z</time>
      </trkpt>
      <trkpt lat="45.68372" lon="4.35136">
        <ele>487</ele>
        <time>2024-10-19T22:51:24Z</time>
      </trkpt>
      <trkpt lat="45.68375" lon="4.35134">
        <ele>487</ele>
        <time>2024-10-19T22:51:26Z</time>
      </trkpt>
      <trkpt lat="45.68386" lon="4.35106">
        <ele>484</ele>
        <time>2024-10-19T22:51:44Z</time>
      </trkpt>
      <trkpt lat="45.68389" lon="4.35084">
        <ele>482</ele>
        <time>2024-10-19T22:51:57Z</time>
      </trkpt>
      <trkpt lat="45.68389" lon="4.35068">
        <ele>483</ele>
        <time>2024-10-19T22:52:06Z</time>
      </trkpt>
      <trkpt lat="45.68387" lon="4.35056">
        <ele>483</ele>
        <time>2024-10-19T22:52:13Z</time>
      </trkpt>
      <trkpt lat="45.6838" lon="4.35034">
        <ele>485</ele>
        <time>2024-10-19T22:52:26Z</time>
      </trkpt>
      <trkpt lat="45.68374" lon="4.35023">
        <ele>486</ele>
        <time>2024-10-19T22:52:34Z</time>
      </trkpt>
      <trkpt lat="45.68325" lon="4.3497">
        <ele>497</ele>
        <time>2024-10-19T22:53:23Z</time>
      </trkpt>
      <trkpt lat="45.68256" lon="4.34883">
        <ele>515</ele>
        <time>2024-10-19T22:54:37Z</time>
      </trkpt>
      <trkpt lat="45.68233" lon="4.34861">
        <ele>520</ele>
        <time>2024-10-19T22:54:59Z</time>
      </trkpt>
      <trkpt lat="45.68116" lon="4.34762">
        <ele>532</ele>
        <time>2024-10-19T22:56:48Z</time>
      </trkpt>
      <trkpt lat="45.68114" lon="4.3476">
        <ele>532</ele>
        <time>2024-10-19T22:56:50Z</time>
      </trkpt>
      <trkpt lat="45.68109" lon="4.34749">
        <ele>533</ele>
        <time>2024-10-19T22:56:57Z</time>
      </trkpt>
      <trkpt lat="45.68084" lon="4.34709">
        <ele>532</ele>
        <time>2024-10-19T22:57:27Z</time>
      </trkpt>
      <trkpt lat="45.68068" lon="4.34688">
        <ele>534</ele>
        <time>2024-10-19T22:57:45Z</time>
      </trkpt>
      <trkpt lat="45.67984" lon="4.34549">
        <ele>544</ele>
        <time>2024-10-19T22:59:27Z</time>
      </trkpt>
      <trkpt lat="45.67938" lon="4.34487">
        <ele>549</ele>
        <time>2024-10-19T23:00:18Z</time>
      </trkpt>
      <trkpt lat="45.67927" lon="4.34476">
        <ele>550</ele>
        <time>2024-10-19T23:00:29Z</time>
      </trkpt>
      <trkpt lat="45.67904" lon="4.34464">
        <ele>553</ele>
        <time>2024-10-19T23:00:48Z</time>
      </trkpt>
      <trkpt lat="45.67864" lon="4.34428">
        <ele>555</ele>
        <time>2024-10-19T23:01:26Z</time>
      </trkpt>
      <trkpt lat="45.67819" lon="4.3439">
        <ele>557</ele>
        <time>2024-10-19T23:02:08Z</time>
      </trkpt>
      <trkpt lat="45.67816" lon="4.34386">
        <ele>557</ele>
        <time>2024-10-19T23:02:11Z</time>
      </trkpt>
      <trkpt lat="45.67812" lon="4.34378">
        <ele>556</ele>
        <time>2024-10-19T23:02:17Z</time>
      </trkpt>
      <trkpt lat="45.67773" lon="4.34342">
        <ele>553</ele>
        <time>2024-10-19T23:02:54Z</time>
      </trkpt>
      <trkpt lat="45.67741" lon="4.34317">
        <ele>550</ele>
        <time>2024-10-19T23:03:23Z</time>
      </trkpt>
      <trkpt lat="45.67728" lon="4.34316">
        <ele>551</ele>
        <time>2024-10-19T23:03:34Z</time>
      </trkpt>
      <trkpt lat="45.67711" lon="4.34322">
        <ele>552</ele>
        <time>2024-10-19T23:03:48Z</time>
      </trkpt>
      <trkpt lat="45.67702" lon="4.34322">
        <ele>553</ele>
        <time>2024-10-19T23:03:55Z</time>
      </trkpt>
      <trkpt lat="45.67677" lon="4.34312">
        <ele>554</ele>
        <time>2024-10-19T23:04:16Z</time>
      </trkpt>
      <trkpt lat="45.67675" lon="4.34307">
        <ele>554</ele>
        <time>2024-10-19T23:04:19Z</time>
      </trkpt>
      <trkpt lat="45.67673" lon="4.34298">
        <ele>555</ele>
        <time>2024-10-19T23:04:24Z</time>
      </trkpt>
      <trkpt lat="45.67671" lon="4.34213">
        <ele>555</ele>
        <time>2024-10-19T23:05:12Z</time>
      </trkpt>
      <trkpt lat="45.67668" lon="4.34199">
        <ele>555</ele>
        <time>2024-10-19T23:05:20Z</time>
      </trkpt>
      <trkpt lat="45.67665" lon="4.34195">
        <ele>555</ele>
        <time>2024-10-19T23:05:23Z</time>
      </trkpt>
      <trkpt lat="45.67661" lon="4.34194">
        <ele>556</ele>
        <time>2024-10-19T23:05:26Z</time>
      </trkpt>
      <trkpt lat="45.67657" lon="4.34195">
        <ele>556</ele>
        <time>2024-10-19T23:05:30Z</time>
      </trkpt>
      <trkpt lat="45.67652" lon="4.34216">
        <ele>558</ele>
        <time>2024-10-19T23:05:42Z</time>
      </trkpt>
      <trkpt lat="45.67646" lon="4.34231">
        <ele>560</ele>
        <time>2024-10-19T23:05:52Z</time>
      </trkpt>
      <trkpt lat="45.67632" lon="4.34249">
        <ele>564</ele>
        <time>2024-10-19T23:06:07Z</time>
      </trkpt>
      <trkpt lat="45.67626" lon="4.34253">
        <ele>565</ele>
        <time>2024-10-19T23:06:12Z</time>
      </trkpt>
      <trkpt lat="45.67606" lon="4.34251">
        <ele>569</ele>
        <time>2024-10-19T23:06:28Z</time>
      </trkpt>
      <trkpt lat="45.67593" lon="4.34247">
        <ele>571</ele>
        <time>2024-10-19T23:06:39Z</time>
      </trkpt>
      <trkpt lat="45.67527" lon="4.34222">
        <ele>575</ele>
        <time>2024-10-19T23:07:33Z</time>
      </trkpt>
      <trkpt lat="45.67437" lon="4.34196">
        <ele>579</ele>
        <time>2024-10-19T23:08:47Z</time>
      </trkpt>
      <trkpt lat="45.67425" lon="4.34194">
        <ele>579</ele>
        <time>2024-10-19T23:08:57Z</time>
      </trkpt>
      <trkpt lat="45.67406" lon="4.34195">
        <ele>579</ele>
        <time>2024-10-19T23:09:12Z</time>
      </trkpt>
      <trkpt lat="45.67402" lon="4.34195">
        <ele>579</ele>
        <time>2024-10-19T23:09:15Z</time>
      </trkpt>
      <trkpt lat="45.67407" lon="4.34146">
        <ele>577</ele>
        <time>2024-10-19T23:09:43Z</time>
      </trkpt>
      <trkpt lat="45.67407" lon="4.34134">
        <ele>576</ele>
        <time>2024-10-19T23:09:49Z</time>
      </trkpt>
      <trkpt lat="45.67404" lon="4.34125">
        <ele>576</ele>
        <time>2024-10-19T23:09:55Z</time>
      </trkpt>
      <trkpt lat="45.67408" lon="4.34091">
        <ele>574</ele>
        <time>2024-10-19T23:10:14Z</time>
      </trkpt>
      <trkpt lat="45.67407" lon="4.34058">
        <ele>573</ele>
        <time>2024-10-19T23:10:33Z</time>
      </trkpt>
      <trkpt lat="45.67402" lon="4.34009">
        <ele>572</ele>
        <time>2024-10-19T23:11:01Z</time>
      </trkpt>
      <trkpt lat="45.67396" lon="4.33979">
        <ele>571</ele>
        <time>2024-10-19T23:11:18Z</time>
      </trkpt>
      <trkpt lat="45.67387" lon="4.33944">
        <ele>570</ele>
        <time>2024-10-19T23:11:39Z</time>
      </trkpt>
      <trkpt lat="45.67377" lon="4.33916">
        <ele>570</ele>
        <time>2024-10-19T23:11:56Z</time>
      </trkpt>
      <trkpt lat="45.6737" lon="4.33901">
        <ele>569</ele>
        <time>2024-10-19T23:12:07Z</time>
      </trkpt>
      <trkpt lat="45.67359" lon="4.33888">
        <ele>569</ele>
        <time>2024-10-19T23:12:18Z</time>
      </trkpt>
      <trkpt lat="45.6728" lon="4.33676">
        <ele>561</ele>
        <time>2024-10-19T23:14:32Z</time>
      </trkpt>
      <trkpt lat="45.67271" lon="4.3365">
        <ele>560</ele>
        <time>2024-10-19T23:14:49Z</time>
      </trkpt>
      <trkpt lat="45.67262" lon="4.33622">
        <ele>559</ele>
        <time>2024-10-19T23:15:06Z</time>
      </trkpt>
      <trkpt lat="45.67239" lon="4.33567">
        <ele>555</ele>
        <time>2024-10-19T23:15:42Z</time>
      </trkpt>
      <trkpt lat="45.6721" lon="4.33488">
        <ele>552</ele>
        <time>2024-10-19T23:16:32Z</time>
      </trkpt>
      <trkpt lat="45.67194" lon="4.33457">
        <ele>551</ele>
        <time>2024-10-19T23:16:53Z</time>
      </trkpt>
      <trkpt lat="45.67186" lon="4.33448">
        <ele>551</ele>
        <time>2024-10-19T23:17:01Z</time>
      </trkpt>
      <trkpt lat="45.67159" lon="4.3343">
        <ele>549</ele>
        <time>2024-10-19T23:17:25Z</time>
      </trkpt>
      <trkpt lat="45.67115" lon="4.33404">
        <ele>546</ele>
        <time>2024-10-19T23:18:03Z</time>
      </trkpt>
      <trkpt lat="45.67089" lon="4.33381">
        <ele>545</ele>
        <time>2024-10-19T23:18:28Z</time>
      </trkpt>
      <trkpt lat="45.67079" lon="4.33368">
        <ele>544</ele>
        <time>2024-10-19T23:18:39Z</time>
      </trkpt>
      <trkpt lat="45.67063" lon="4.33333">
        <ele>543</ele>
        <time>2024-10-19T23:19:02Z</time>
      </trkpt>
      <trkpt lat="45.67042" lon="4.33278">
        <ele>538</ele>
        <time>2024-10-19T23:19:37Z</time>
      </trkpt>
      <trkpt lat="45.67021" lon="4.33241">
        <ele>532</ele>
        <time>2024-10-19T23:20:04Z</time>
      </trkpt>
      <trkpt lat="45.67013" lon="4.33223">
        <ele>529</ele>
        <time>2024-10-19T23:20:16Z</time>
      </trkpt>
      <trkpt lat="45.67004" lon="4.33192">
        <ele>526</ele>
        <time>2024-10-19T23:20:34Z</time>
      </trkpt>
      <trkpt lat="45.66999" lon="4.33169">
        <ele>525</ele>
        <time>2024-10-19T23:20:48Z</time>
      </trkpt>
      <trkpt lat="45.66996" lon="4.33139">
        <ele>522</ele>
        <time>2024-10-19T23:21:05Z</time>
      </trkpt>
      <trkpt lat="45.66994" lon="4.3312">
        <ele>520</ele>
        <time>2024-10-19T23:21:16Z</time>
      </trkpt>
      <trkpt lat="45.66984" lon="4.33099">
        <ele>516</ele>
        <time>2024-10-19T23:21:30Z</time>
      </trkpt>
      <trkpt lat="45.66949" lon="4.33053">
        <ele>505</ele>
        <time>2024-10-19T23:22:08Z</time>
      </trkpt>
      <trkpt lat="45.66936" lon="4.33032">
        <ele>501</ele>
        <time>2024-10-19T23:22:24Z</time>
      </trkpt>
      <trkpt lat="45.66933" lon="4.3303">
        <ele>500</ele>
        <time>2024-10-19T23:22:26Z</time>
      </trkpt>
      <trkpt lat="45.66928" lon="4.33036">
        <ele>499</ele>
        <time>2024-10-19T23:22:31Z</time>
      </trkpt>
      <trkpt lat="45.66917" lon="4.33096">
        <ele>500</ele>
        <time>2024-10-19T23:23:06Z</time>
      </trkpt>
      <trkpt lat="45.66912" lon="4.33101">
        <ele>501</ele>
        <time>2024-10-19T23:23:11Z</time>
      </trkpt>
      <trkpt lat="45.669" lon="4.33057">
        <ele>500</ele>
        <time>2024-10-19T23:23:37Z</time>
      </trkpt>
      <trkpt lat="45.66896" lon="4.33033">
        <ele>499</ele>
        <time>2024-10-19T23:23:51Z</time>
      </trkpt>
      <trkpt lat="45.66894" lon="4.33003">
        <ele>497</ele>
        <time>2024-10-19T23:24:08Z</time>
      </trkpt>
      <trkpt lat="45.66897" lon="4.32989">
        <ele>496</ele>
        <time>2024-10-19T23:24:16Z</time>
      </trkpt>
      <trkpt lat="45.66904" lon="4.32967">
        <ele>494</ele>
        <time>2024-10-19T23:24:30Z</time>
      </trkpt>
      <trkpt lat="45.66937" lon="4.32889">
        <ele>491</ele>
        <time>2024-10-19T23:25:21Z</time>
      </trkpt>
      <trkpt lat="45.66968" lon="4.32842">
        <ele>490</ele>
        <time>2024-10-19T23:25:57Z</time>
      </trkpt>
      <trkpt lat="45.66986" lon="4.32822">
        <ele>489</ele>
        <time>2024-10-19T23:26:15Z</time>
      </trkpt>
      <trkpt lat="45.67015" lon="4.32794">
        <ele>489</ele>
        <time>2024-10-19T23:26:43Z</time>
      </trkpt>
      <trkpt lat="45.6703" lon="4.32777">
        <ele>488</ele>
        <time>2024-10-19T23:26:59Z</time>
      </trkpt>
      <trkpt lat="45.6707" lon="4.32709">
        <ele>484</ele>
        <time>2024-10-19T23:27:48Z</time>
      </trkpt>
      <trkpt lat="45.67085" lon="4.32675">
        <ele>482</ele>
        <time>2024-10-19T23:28:11Z</time>
      </trkpt>
      <trkpt lat="45.67115" lon="4.32637">
        <ele>485</ele>
        <time>2024-10-19T23:28:43Z</time>
      </trkpt>
      <trkpt lat="45.67132" lon="4.32603">
        <ele>485</ele>
        <time>2024-10-19T23:29:06Z</time>
      </trkpt>
      <trkpt lat="45.67137" lon="4.32581">
        <ele>484</ele>
        <time>2024-10-19T23:29:19Z</time>
      </trkpt>
      <trkpt lat="45.6714" lon="4.32526">
        <ele>483</ele>
        <time>2024-10-19T23:29:50Z</time>
      </trkpt>
      <trkpt lat="45.67148" lon="4.32503">
        <ele>480</ele>
        <time>2024-10-19T23:30:05Z</time>
      </trkpt>
      <trkpt lat="45.67183" lon="4.32445">
        <ele>472</ele>
        <time>2024-10-19T23:30:47Z</time>
      </trkpt>
      <trkpt lat="45.67201" lon="4.32421">
        <ele>470</ele>
        <time>2024-10-19T23:31:07Z</time>
      </trkpt>
      <trkpt lat="45.67239" lon="4.3238">
        <ele>470</ele>
        <time>2024-10-19T23:31:45Z</time>
      </trkpt>
      <trkpt lat="45.67249" lon="4.32366">
        <ele>469</ele>
        <time>2024-10-19T23:31:56Z</time>
      </trkpt>
      <trkpt lat="45.67261" lon="4.32347">
        <ele>469</ele>
        <time>2024-10-19T23:32:11Z</time>
      </trkpt>
      <trkpt lat="45.67284" lon="4.3232">
        <ele>469</ele>
        <time>2024-10-19T23:32:35Z</time>
      </trkpt>
      <trkpt lat="45.67313" lon="4.32273">
        <ele>468</ele>
        <time>2024-10-19T23:33:10Z</time>
      </trkpt>
      <trkpt lat="45.67342" lon="4.32251">
        <ele>462</ele>
        <time>2024-10-19T23:33:36Z</time>
      </trkpt>
      <trkpt lat="45.67362" lon="4.32239">
        <ele>463</ele>
        <time>2024-10-19T23:33:53Z</time>
      </trkpt>
      <trkpt lat="45.67375" lon="4.32226">
        <ele>464</ele>
        <time>2024-10-19T23:34:06Z</time>
      </trkpt>
      <trkpt lat="45.67444" lon="4.321">
        <ele>458</ele>
        <time>2024-10-19T23:35:36Z</time>
      </trkpt>
      <trkpt lat="45.67454" lon="4.32075">
        <ele>457</ele>
        <time>2024-10-19T23:35:52Z</time>
      </trkpt>
      <trkpt lat="45.67458" lon="4.32058">
        <ele>456</ele>
        <time>2024-10-19T23:36:02Z</time>
      </trkpt>
      <trkpt lat="45.67459" lon="4.32041">
        <ele>455</ele>
        <time>2024-10-19T23:36:11Z</time>
      </trkpt>
      <trkpt lat="45.6746" lon="4.32032">
        <ele>455</ele>
        <time>2024-10-19T23:36:16Z</time>
      </trkpt>
      <trkpt lat="45.67466" lon="4.32016">
        <ele>454</ele>
        <time>2024-10-19T23:36:26Z</time>
      </trkpt>
      <trkpt lat="45.67473" lon="4.32005">
        <ele>453</ele>
        <time>2024-10-19T23:36:35Z</time>
      </trkpt>
      <trkpt lat="45.6751" lon="4.31979">
        <ele>453</ele>
        <time>2024-10-19T23:37:08Z</time>
      </trkpt>
      <trkpt lat="45.67534" lon="4.3195">
        <ele>454</ele>
        <time>2024-10-19T23:37:33Z</time>
      </trkpt>
      <trkpt lat="45.67549" lon="4.31941">
        <ele>453</ele>
        <time>2024-10-19T23:37:46Z</time>
      </trkpt>
      <trkpt lat="45.67567" lon="4.31937">
        <ele>451</ele>
        <time>2024-10-19T23:38:01Z</time>
      </trkpt>
      <trkpt lat="45.67581" lon="4.31936">
        <ele>449</ele>
        <time>2024-10-19T23:38:12Z</time>
      </trkpt>
      <trkpt lat="45.67606" lon="4.31946">
        <ele>446</ele>
        <time>2024-10-19T23:38:33Z</time>
      </trkpt>
      <trkpt lat="45.6764" lon="4.31964">
        <ele>443</ele>
        <time>2024-10-19T23:39:02Z</time>
      </trkpt>
      <trkpt lat="45.67665" lon="4.31971">
        <ele>440</ele>
        <time>2024-10-19T23:39:22Z</time>
      </trkpt>
      <trkpt lat="45.67676" lon="4.31972">
        <ele>440</ele>
        <time>2024-10-19T23:39:31Z</time>
      </trkpt>
      <trkpt lat="45.67688" lon="4.31967">
        <ele>440</ele>
        <time>2024-10-19T23:39:41Z</time>
      </trkpt>
      <trkpt lat="45.67698" lon="4.31961">
        <ele>439</ele>
        <time>2024-10-19T23:39:50Z</time>
      </trkpt>
      <trkpt lat="45.67706" lon="4.31951">
        <ele>440</ele>
        <time>2024-10-19T23:39:58Z</time>
      </trkpt>
      <trkpt lat="45.67713" lon="4.31939">
        <ele>440</ele>
        <time>2024-10-19T23:40:07Z</time>
      </trkpt>
      <trkpt lat="45.67714" lon="4.31931">
        <ele>440</ele>
        <time>2024-10-19T23:40:11Z</time>
      </trkpt>
      <trkpt lat="45.67716" lon="4.31917">
        <ele>441</ele>
        <time>2024-10-19T23:40:19Z</time>
      </trkpt>
      <trkpt lat="45.67703" lon="4.31884">
        <ele>441</ele>
        <time>2024-10-19T23:40:40Z</time>
      </trkpt>
      <trkpt lat="45.67685" lon="4.31845">
        <ele>439</ele>
        <time>2024-10-19T23:41:07Z</time>
      </trkpt>
      <trkpt lat="45.67678" lon="4.31824">
        <ele>438</ele>
        <time>2024-10-19T23:41:20Z</time>
      </trkpt>
      <trkpt lat="45.67688" lon="4.3174">
        <ele>439</ele>
        <time>2024-10-19T23:42:07Z</time>
      </trkpt>
      <trkpt lat="45.67696" lon="4.31696">
        <ele>439</ele>
        <time>2024-10-19T23:42:33Z</time>
      </trkpt>
      <trkpt lat="45.67708" lon="4.31653">
        <ele>439</ele>
        <time>2024-10-19T23:42:59Z</time>
      </trkpt>
      <trkpt lat="45.67715" lon="4.31643">
        <ele>439</ele>
        <time>2024-10-19T23:43:07Z</time>
      </trkpt>
      <trkpt lat="45.67736" lon="4.31641">
        <ele>440</ele>
        <time>2024-10-19T23:43:23Z</time>
      </trkpt>
      <trkpt lat="45.67751" lon="4.31643">
        <ele>442</ele>
        <time>2024-10-19T23:43:35Z</time>
      </trkpt>
      <trkpt lat="45.67779" lon="4.31649">
        <ele>443</ele>
        <time>2024-10-19T23:43:58Z</time>
      </trkpt>
      <trkpt lat="45.67827" lon="4.31663">
        <ele>447</ele>
        <time>2024-10-19T23:44:37Z</time>
      </trkpt>
      <trkpt lat="45.67862" lon="4.31665">
        <ele>450</ele>
        <time>2024-10-19T23:45:05Z</time>
      </trkpt>
      <trkpt lat="45.6792" lon="4.31662">
        <ele>454</ele>
        <time>2024-10-19T23:45:52Z</time>
      </trkpt>
      <trkpt lat="45.67936" lon="4.3166">
        <ele>456</ele>
        <time>2024-10-19T23:46:05Z</time>
      </trkpt>
      <trkpt lat="45.67954" lon="4.31654">
        <ele>458</ele>
        <time>2024-10-19T23:46:20Z</time>
      </trkpt>
      <trkpt lat="45.67995" lon="4.31652">
        <ele>463</ele>
        <time>2024-10-19T23:46:52Z</time>
      </trkpt>
      <trkpt lat="45.68" lon="4.31648">
        <ele>464</ele>
        <time>2024-10-19T23:46:57Z</time>
      </trkpt>
      <trkpt lat="45.68005" lon="4.31637">
        <ele>464</ele>
        <time>2024-10-19T23:47:04Z</time>
      </trkpt>
      <trkpt lat="45.68006" lon="4.31626">
        <ele>463</ele>
        <time>2024-10-19T23:47:11Z</time>
      </trkpt>
      <trkpt lat="45.68003" lon="4.31602">
        <ele>462</ele>
        <time>2024-10-19T23:47:24Z</time>
      </trkpt>
      <trkpt lat="45.67999" lon="4.31589">
        <ele>460</ele>
        <time>2024-10-19T23:47:32Z</time>
      </trkpt>
      <trkpt lat="45.67995" lon="4.31579">
        <ele>459</ele>
        <time>2024-10-19T23:47:39Z</time>
      </trkpt>
      <trkpt lat="45.67991" lon="4.31572">
        <ele>459</ele>
        <time>2024-10-19T23:47:44Z</time>
      </trkpt>
      <trkpt lat="45.67974" lon="4.31563">
        <ele>456</ele>
        <time>2024-10-19T23:47:58Z</time>
      </trkpt>
      <trkpt lat="45.67967" lon="4.31556">
        <ele>455</ele>
        <time>2024-10-19T23:48:05Z</time>
      </trkpt>
      <trkpt lat="45.67965" lon="4.31551">
        <ele>454</ele>
        <time>2024-10-19T23:48:08Z</time>
      </trkpt>
      <trkpt lat="45.67967" lon="4.31502">
        <ele>457</ele>
        <time>2024-10-19T23:48:36Z</time>
      </trkpt>
      <trkpt lat="45.67956" lon="4.31455">
        <ele>456</ele>
        <time>2024-10-19T23:49:03Z</time>
      </trkpt>
      <trkpt lat="45.67953" lon="4.31436">
        <ele>456</ele>
        <time>2024-10-19T23:49:14Z</time>
      </trkpt>
      <trkpt lat="45.67955" lon="4.31426">
        <ele>456</ele>
        <time>2024-10-19T23:49:20Z</time>
      </trkpt>
      <trkpt lat="45.67959" lon="4.31413">
        <ele>458</ele>
        <time>2024-10-19T23:49:28Z</time>
      </trkpt>
      <trkpt lat="45.67989" lon="4.31362">
        <ele>463</ele>
        <time>2024-10-19T23:50:05Z</time>
      </trkpt>
      <trkpt lat="45.67993" lon="4.31348">
        <ele>464</ele>
        <time>2024-10-19T23:50:14Z</time>
      </trkpt>
      <trkpt lat="45.68" lon="4.31276">
        <ele>466</ele>
        <time>2024-10-19T23:50:54Z</time>
      </trkpt>
      <trkpt lat="45.67997" lon="4.31237">
        <ele>466</ele>
        <time>2024-10-19T23:51:16Z</time>
      </trkpt>
      <trkpt lat="45.68005" lon="4.31155">
        <ele>467</ele>
        <time>2024-10-19T23:52:03Z</time>
      </trkpt>
      <trkpt lat="45.68007" lon="4.31139">
        <ele>467</ele>
        <time>2024-10-19T23:52:12Z</time>
      </trkpt>
      <trkpt lat="45.68011" lon="4.31134">
        <ele>467</ele>
        <time>2024-10-19T23:52:16Z</time>
      </trkpt>
      <trkpt lat="45.67994" lon="4.31092">
        <ele>469</ele>
        <time>2024-10-19T23:52:43Z</time>
      </trkpt>
      <trkpt lat="45.67982" lon="4.31053">
        <ele>468</ele>
        <time>2024-10-19T23:53:07Z</time>
      </trkpt>
      <trkpt lat="45.67971" lon="4.30983">
        <ele>467</ele>
        <time>2024-10-19T23:53:47Z</time>
      </trkpt>
      <trkpt lat="45.67953" lon="4.30908">
        <ele>466</ele>
        <time>2024-10-19T23:54:32Z</time>
      </trkpt>
      <trkpt lat="45.67917" lon="4.30785">
        <ele>461</ele>
        <time>2024-10-19T23:55:46Z</time>
      </trkpt>
      <trkpt lat="45.67905" lon="4.3075">
        <ele>459</ele>
        <time>2024-10-19T23:56:08Z</time>
      </trkpt>
      <trkpt lat="45.67897" lon="4.3073">
        <ele>458</ele>
        <time>2024-10-19T23:56:21Z</time>
      </trkpt>
      <trkpt lat="45.67889" lon="4.30715">
        <ele>458</ele>
        <time>2024-10-19T23:56:31Z</time>
      </trkpt>
      <trkpt lat="45.67816" lon="4.30588">
        <ele>454</ele>
        <time>2024-10-19T23:58:03Z</time>
      </trkpt>
      <trkpt lat="45.67803" lon="4.30557">
        <ele>453</ele>
        <time>2024-10-19T23:58:24Z</time>
      </trkpt>
      <trkpt lat="45.6778" lon="4.30491">
        <ele>451</ele>
        <time>2024-10-19T23:59:05Z</time>
      </trkpt>
      <trkpt lat="45.67771" lon="4.30458">
        <ele>452</ele>
        <time>2024-10-19T23:59:25Z</time>
      </trkpt>
      <trkpt lat="45.6775" lon="4.30397">
        <ele>454</ele>
        <time>2024-10-20T00:00:03Z</time>
      </trkpt>
      <trkpt lat="45.67748" lon="4.3038">
        <ele>454</ele>
        <time>2024-10-20T00:00:12Z</time>
      </trkpt>
      <trkpt lat="45.67748" lon="4.30363">
        <ele>454</ele>
        <time>2024-10-20T00:00:22Z</time>
      </trkpt>
      <trkpt lat="45.67753" lon="4.30305">
        <ele>453</ele>
        <time>2024-10-20T00:00:55Z</time>
      </trkpt>
      <trkpt lat="45.67753" lon="4.30293">
        <ele>452</ele>
        <time>2024-10-20T00:01:01Z</time>
      </trkpt>
      <trkpt lat="45.67745" lon="4.3027">
        <ele>451</ele>
        <time>2024-10-20T00:01:16Z</time>
      </trkpt>
      <trkpt lat="45.67738" lon="4.30261">
        <ele>450</ele>
        <time>2024-10-20T00:01:23Z</time>
      </trkpt>
      <trkpt lat="45.67718" lon="4.30241">
        <ele>448</ele>
        <time>2024-10-20T00:01:43Z</time>
      </trkpt>
      <trkpt lat="45.6771" lon="4.30228">
        <ele>447</ele>
        <time>2024-10-20T00:01:52Z</time>
      </trkpt>
      <trkpt lat="45.67706" lon="4.30215">
        <ele>447</ele>
        <time>2024-10-20T00:02:00Z</time>
      </trkpt>
      <trkpt lat="45.67705" lon="4.30108">
        <ele>443</ele>
        <time>2024-10-20T00:03:00Z</time>
      </trkpt>
    </trkseg>
  </trk>
</gpx>